createdAt,value
2022-10-12T16:01:47.362Z,6.00
2022-10-12T16:03:25.283Z,8.40
2022-10-12T16:04:57.858Z,9.40
2022-10-12T16:06:29.630Z,11.20
2022-10-12T16:08:02.020Z,8.00
2022-10-12T16:09:33.767Z,19.00
2022-10-12T16:11:06.500Z,18.40
2022-10-12T16:12:38.189Z,13.60
2022-10-12T16:14:12.543Z,7.60
2022-10-12T16:15:44.384Z,9.00
2022-10-12T16:17:16.464Z,11.60
2022-10-12T16:18:48.470Z,9.00
2022-10-12T16:20:20.238Z,8.60
2022-10-12T16:21:52.086Z,9.00
2022-10-12T16:23:28.302Z,11.00
2022-10-12T16:25:00.035Z,10.60
2022-10-12T16:26:31.653Z,8.80
2022-10-12T16:28:03.471Z,8.40
2022-10-12T16:29:37.196Z,12.60
2022-10-12T16:31:15.871Z,8.40
2022-10-12T16:32:48.053Z,10.60
2022-10-12T16:34:20.046Z,5.80
2022-10-12T16:35:51.745Z,17.40
2022-10-12T16:37:23.692Z,24.80
2022-10-12T16:38:55.647Z,21.40
2022-10-12T16:40:27.377Z,15.40
2022-10-12T16:41:59.039Z,15.20
2022-10-12T16:43:30.783Z,12.20
2022-10-12T16:45:02.521Z,13.80
2022-10-12T16:46:34.349Z,14.40
2022-10-12T16:48:06.052Z,13.60
2022-10-12T16:49:37.835Z,11.00
2022-10-12T16:51:10.472Z,9.20
2022-10-12T16:52:42.190Z,13.00
2022-10-12T16:54:14.037Z,10.80
2022-10-12T16:55:45.995Z,8.40
2022-10-12T16:57:17.650Z,11.60
2022-10-12T16:58:49.388Z,13.40
2022-10-12T17:00:21.286Z,18.80
2022-10-12T17:01:53.056Z,12.40
2022-10-12T17:03:24.997Z,10.60
2022-10-12T17:04:56.750Z,15.80
2022-10-12T17:06:29.306Z,15.80
2022-10-12T17:08:00.967Z,15.00
2022-10-12T17:09:32.769Z,50.40
2022-10-12T17:11:08.369Z,91.75
2022-10-12T17:12:40.062Z,64.25
2022-10-12T17:14:13.790Z,78.25
2022-10-12T17:15:45.583Z,80.25
2022-10-12T17:17:17.752Z,82.50
2022-10-12T17:18:49.503Z,79.50
2022-10-12T17:20:21.240Z,79.25
2022-10-12T17:21:53.868Z,82.75
2022-10-12T17:23:25.577Z,91.25
2022-10-12T17:24:57.281Z,90.25
2022-10-12T17:26:29.056Z,98.00
2022-10-12T17:28:00.720Z,96.25
2022-10-12T17:29:32.798Z,101.60
2022-10-12T17:31:09.253Z,111.25
2022-10-12T17:32:43.884Z,127.00
2022-10-12T17:34:23.339Z,120.25
2022-10-12T17:35:55.152Z,136.50
2022-10-12T17:37:26.834Z,144.25
2022-10-12T17:38:58.824Z,155.75
2022-10-12T17:40:30.622Z,140.25
2022-10-12T17:42:03.007Z,145.25
2022-10-12T17:43:36.588Z,145.50
2022-10-12T17:45:09.014Z,149.50
2022-10-12T17:46:42.411Z,149.75
2022-10-12T17:48:15.574Z,148.50
2022-10-12T17:49:51.075Z,151.50
2022-10-12T17:51:23.027Z,157.50
2022-10-12T17:52:55.073Z,145.25
2022-10-12T17:54:27.618Z,148.50
2022-10-12T17:56:03.166Z,146.50
2022-10-12T17:57:35.354Z,146.75
2022-10-12T17:59:08.674Z,139.75
2022-10-12T18:00:40.691Z,147.00
2022-10-12T18:02:12.818Z,145.00
2022-10-12T18:03:47.432Z,206.00
2022-10-12T18:05:21.012Z,199.33
2022-10-12T18:06:53.633Z,197.67
2022-10-12T18:08:25.679Z,184.50
2022-10-12T18:09:59.408Z,168.25
2022-10-12T18:11:31.860Z,141.50
2022-10-12T18:13:03.965Z,142.00
2022-10-12T18:14:36.121Z,132.50
2022-10-12T18:16:09.461Z,131.75
2022-10-12T18:17:41.530Z,124.00
2022-10-12T18:19:13.504Z,129.75
2022-10-12T18:20:45.409Z,121.00
2022-10-12T18:22:18.620Z,137.75
2022-10-12T18:23:51.199Z,150.50
2022-10-12T18:25:23.032Z,139.25
2022-10-12T18:26:54.783Z,139.50
2022-10-12T18:28:26.458Z,145.25
2022-10-12T18:29:58.807Z,144.50
2022-10-12T18:31:31.382Z,150.75
2022-10-12T18:33:04.113Z,144.50
2022-10-12T18:34:38.707Z,152.25
2022-10-12T18:36:10.608Z,151.00
2022-10-12T18:37:42.305Z,147.25
2022-10-12T18:39:14.658Z,158.50
2022-10-12T18:40:47.632Z,153.50
2022-10-12T18:42:19.694Z,149.25
2022-10-12T18:43:55.471Z,150.00
2022-10-12T18:45:28.573Z,141.00
2022-10-12T18:47:00.453Z,135.00
2022-10-12T18:48:32.252Z,142.75
2022-10-12T18:50:04.597Z,141.00
2022-10-12T18:51:37.912Z,141.50
2022-10-12T18:53:09.701Z,131.75
2022-10-12T18:54:44.313Z,133.50
2022-10-12T18:56:16.528Z,133.00
2022-10-12T18:57:48.363Z,122.00
2022-10-12T18:59:20.416Z,129.75
2022-10-12T19:00:52.313Z,129.00
2022-10-12T19:02:24.219Z,147.25
2022-10-12T19:03:56.458Z,165.50
2022-10-12T19:05:28.278Z,149.25
2022-10-12T19:07:00.036Z,167.00
2022-10-12T19:08:31.865Z,167.25
2022-10-12T19:10:06.942Z,170.75
2022-10-12T19:11:38.661Z,164.00
2022-10-12T19:13:10.422Z,203.00
2022-10-12T19:14:42.705Z,456.80
2022-10-12T19:16:15.787Z,260.00
2022-10-12T19:17:47.513Z,240.50
2022-10-12T19:19:21.502Z,258.00
2022-10-12T19:20:53.648Z,239.33
2022-10-12T19:22:26.525Z,225.67
2022-10-12T19:23:58.462Z,211.33
2022-10-12T19:25:30.601Z,223.67
2022-10-12T19:27:04.136Z,194.67
2022-10-12T19:28:35.973Z,208.00
2022-10-12T19:30:09.187Z,191.33
2022-10-12T19:31:43.761Z,209.33
2022-10-12T19:33:15.478Z,224.33
2022-10-12T19:34:47.225Z,230.33
2022-10-12T19:36:19.052Z,215.67
2022-10-12T19:37:50.861Z,223.00
2022-10-12T19:39:22.999Z,212.00
2022-10-12T19:40:55.077Z,234.00
2022-10-12T19:42:26.840Z,229.33
2022-10-12T19:43:58.841Z,231.00
2022-10-12T19:45:30.721Z,198.00
2022-10-12T19:47:03.505Z,211.33
2022-10-12T19:48:35.835Z,216.33
2022-10-12T19:50:08.244Z,203.67
2022-10-12T19:51:40.682Z,202.67
2022-10-12T19:53:12.411Z,210.00
2022-10-12T19:54:44.222Z,204.00
2022-10-12T19:56:17.669Z,206.00
2022-10-12T19:57:50.684Z,209.00
2022-10-12T19:59:22.384Z,201.67
2022-10-12T20:01:10.481Z,185.67
2022-10-12T20:02:43.160Z,204.67
2022-10-12T20:04:15.159Z,196.00
2022-10-12T20:05:47.049Z,173.75
2022-10-12T20:07:18.896Z,181.75
2022-10-12T20:08:51.320Z,178.00
2022-10-12T20:10:23.489Z,175.75
2022-10-12T20:11:55.151Z,175.50
2022-10-12T20:13:27.101Z,169.50
2022-10-12T20:14:59.178Z,163.75
2022-10-12T20:16:34.840Z,170.50
2022-10-12T20:18:07.136Z,163.75
2022-10-12T20:19:38.899Z,156.50
2022-10-12T20:21:12.084Z,154.75
2022-10-12T20:22:43.905Z,160.25
2022-10-12T20:24:15.615Z,143.00
2022-10-12T20:25:51.909Z,143.25
2022-10-12T20:27:23.722Z,146.50
2022-10-12T20:28:55.433Z,129.75
2022-10-12T20:30:27.248Z,137.25
2022-10-12T20:31:58.957Z,130.75
2022-10-12T20:33:31.039Z,127.75
2022-10-12T20:35:05.114Z,142.50
2022-10-12T20:36:36.914Z,147.75
2022-10-12T20:38:08.627Z,155.25
2022-10-12T20:39:40.393Z,306.00
2022-10-12T20:41:13.068Z,286.00
2022-10-12T20:42:44.789Z,270.50
2022-10-12T20:44:16.651Z,264.00
2022-10-12T20:46:06.642Z,201.00
2022-10-12T20:47:38.325Z,188.75
2022-10-12T20:49:10.690Z,182.75
2022-10-12T20:50:42.364Z,173.50
2022-10-12T20:52:14.166Z,168.75
2022-10-12T20:53:45.878Z,171.00
2022-10-12T20:55:17.609Z,176.25
2022-10-12T20:56:52.083Z,172.50
2022-10-12T20:58:27.799Z,178.00
2022-10-12T20:59:59.847Z,172.25
2022-10-12T21:01:31.851Z,176.25
2022-10-12T21:03:03.622Z,163.25
2022-10-12T21:04:38.388Z,175.00
2022-10-12T21:06:14.198Z,166.75
2022-10-12T21:07:46.289Z,159.00
2022-10-12T21:09:18.053Z,169.75
2022-10-12T21:10:50.103Z,174.00
2022-10-12T21:12:21.857Z,160.50
2022-10-12T21:13:54.493Z,156.00
2022-10-12T21:15:26.202Z,163.50
2022-10-12T21:16:57.990Z,157.75
2022-10-12T21:18:33.984Z,161.75
2022-10-12T21:20:07.846Z,156.00
2022-10-12T21:21:39.551Z,149.00
2022-10-12T21:23:11.247Z,142.00
2022-10-12T21:24:43.008Z,152.00
2022-10-12T21:26:16.458Z,142.75
2022-10-12T21:27:48.121Z,133.75
2022-10-12T21:29:19.911Z,140.75
2022-10-12T21:30:51.573Z,140.50
2022-10-12T21:32:23.213Z,130.75
2022-10-12T21:33:55.012Z,137.00
2022-10-12T21:35:26.662Z,123.00
2022-10-12T21:36:58.444Z,132.25
2022-10-12T21:38:30.593Z,121.75
2022-10-12T21:40:02.333Z,129.25
2022-10-12T21:41:34.009Z,126.50
2022-10-12T21:43:05.690Z,120.50
2022-10-12T21:44:37.474Z,110.75
2022-10-12T21:46:11.145Z,110.00
2022-10-12T21:47:42.819Z,103.25
2022-10-12T21:49:14.622Z,109.40
2022-10-12T21:50:46.543Z,105.80
2022-10-12T21:52:18.524Z,105.80
2022-10-12T21:53:50.700Z,107.80
2022-10-12T21:55:22.460Z,107.80
2022-10-12T21:56:54.224Z,99.20
2022-10-12T21:58:27.003Z,98.40
2022-10-12T21:59:59.389Z,94.75
2022-10-12T22:01:35.507Z,95.00
2022-10-12T22:03:07.224Z,75.00
2022-10-12T22:04:40.027Z,72.50
2022-10-12T22:06:14.174Z,79.00
2022-10-12T22:07:45.873Z,66.50
2022-10-12T22:09:19.214Z,68.25
2022-10-12T22:10:51.045Z,70.00
2022-10-12T22:12:22.812Z,95.75
2022-10-12T22:14:08.382Z,113.40
2022-10-12T22:15:40.224Z,124.00
2022-10-12T22:17:16.194Z,128.75
2022-10-12T22:18:49.731Z,133.00
2022-10-12T22:20:21.558Z,124.50
2022-10-12T22:21:57.271Z,117.00
2022-10-12T22:23:33.186Z,112.60
2022-10-12T22:25:08.003Z,108.20
2022-10-12T22:26:42.338Z,104.40
2022-10-12T22:28:14.082Z,104.60
2022-10-12T22:29:46.724Z,102.40
2022-10-12T22:31:22.129Z,111.25
2022-10-12T22:32:53.847Z,130.25
2022-10-12T22:34:25.677Z,139.00
